Time;durP1;ratioP1;P1;durP2;ratioP2;P2;SDS_P1;SDS_P2;PMS_P1;PMS_P2;Temp;Humidity;BMP_temperature;BMP_pressure;BME280_temperature;BME280_humidity;BME280_pressure;Samples;Min_cycle;Max_cycle;Signal;HPM_P1;HPM_P2
2022/09/15 02:55:27;;;;;;;11.35;4.22;;;;;;;;;;6066176;23;20255;-91
2022/09/15 02:58:32;;;;;;;8.27;4.03;;;;;;;;;;6112547;23;20219;-89
2022/09/15 03:01:38;;;;;;;9.95;4.43;;;;;;;;;;6112816;23;20165;-88
2022/09/15 03:04:44;;;;;;;7.68;4.05;;;;;;;;;;6110501;23;20174;-89
2022/09/15 03:07:49;;;;;;;8.45;4.28;;;;;;;;;;6112250;23;20175;-89
2022/09/15 03:10:57;;;;;;;13.43;4.13;;;;;;;;;;6112232;23;20170;-91
2022/09/15 03:14:03;;;;;;;8.15;4.30;;;;;;;;;;6113978;23;20177;-90
2022/09/15 03:17:08;;;;;;;11.23;4.03;;;;;;;;;;6113675;23;20223;-88
2022/09/15 03:20:15;;;;;;;8.50;4.10;;;;;;;;;;6111397;23;20273;-89
2022/09/15 03:23:21;;;;;;;11.27;4.00;;;;;;;;;;6112615;23;20193;-89
2022/09/15 03:26:28;;;;;;;8.65;4.20;;;;;;;;;;6112104;23;20177;-88
2022/09/15 03:29:33;;;;;;;12.32;4.97;;;;;;;;;;6112499;23;20197;-88
2022/09/15 03:32:38;;;;;;;8.93;4.28;;;;;;;;;;6113453;23;20219;-90
2022/09/15 03:35:46;;;;;;;15.10;4.10;;;;;;;;;;6112625;23;20169;-89
2022/09/15 03:38:51;;;;;;;9.40;4.32;;;;;;;;;;6112820;23;20169;-89
2022/09/15 03:41:57;;;;;;;9.85;4.28;;;;;;;;;;6110855;23;20169;-90
2022/09/15 03:45:03;;;;;;;14.30;4.15;;;;;;;;;;6109164;23;20169;-91
2022/09/15 03:48:08;;;;;;;9.88;3.80;;;;;;;;;;6110179;23;20153;-89
2022/09/15 03:51:14;;;;;;;8.40;3.85;;;;;;;;;;6111329;23;20170;-89
2022/09/15 03:54:19;;;;;;;10.73;3.88;;;;;;;;;;6110462;23;20253;-87
2022/09/15 03:57:26;;;;;;;12.52;3.85;;;;;;;;;;6112480;23;20222;-90
2022/09/15 04:00:44;;;;;;;8.40;3.40;;;;;;;;;;6111071;23;20622;-89
2022/09/15 04:03:50;;;;;;;18.58;4.47;;;;;;;;;;6109943;23;20181;-88
2022/09/15 04:06:55;;;;;;;11.25;3.58;;;;;;;;;;6111105;23;20174;-90
2022/09/15 04:10:06;;;;;;;14.00;4.25;;;;;;;;;;6108729;23;20188;-88
2022/09/15 04:13:12;;;;;;;5.78;2.90;;;;;;;;;;6109388;23;20178;-87
2022/09/15 04:16:18;;;;;;;8.27;3.30;;;;;;;;;;6109595;23;20226;-89
2022/09/15 04:19:24;;;;;;;11.88;3.85;;;;;;;;;;6108109;23;20154;-89
2022/09/15 04:22:31;;;;;;;7.45;3.45;;;;;;;;;;6110760;23;20181;-89
2022/09/15 04:25:39;;;;;;;8.13;2.92;;;;;;;;;;6109149;23;20618;-89
2022/09/15 04:28:46;;;;;;;8.07;2.92;;;;;;;;;;6109593;23;20614;-89
2022/09/15 04:31:51;;;;;;;9.63;3.10;;;;;;;;;;6110256;23;20166;-90
2022/09/15 04:34:57;;;;;;;12.02;3.47;;;;;;;;;;6110219;23;20657;-87
2022/09/15 04:38:02;;;;;;;9.82;3.10;;;;;;;;;;6110656;23;20153;-90
2022/09/15 04:41:07;;;;;;;7.05;3.15;;;;;;;;;;6109766;23;20169;-90
2022/09/15 04:44:14;;;;;;;15.15;3.35;;;;;;;;;;6110970;23;20247;-87
2022/09/15 04:47:19;;;;;;;9.05;2.60;;;;;;;;;;6111564;23;20166;-90
2022/09/15 04:50:24;;;;;;;10.63;3.40;;;;;;;;;;6112044;23;20178;-90
2022/09/15 04:53:53;;;;;;;12.55;4.10;;;;;;;;;;6111417;23;20157;-89
2022/09/15 04:56:58;;;;;;;9.63;3.20;;;;;;;;;;6109813;23;20189;-88
2022/09/15 05:00:06;;;;;;;13.07;3.50;;;;;;;;;;6109332;23;20174;-89
2022/09/15 05:03:11;;;;;;;4.90;2.75;;;;;;;;;;6112284;23;20190;-88
2022/09/15 05:06:17;;;;;;;5.82;2.67;;;;;;;;;;6110492;23;20194;-89
2022/09/15 05:09:22;;;;;;;14.00;2.83;;;;;;;;;;6112271;23;20202;-89
2022/09/15 05:12:28;;;;;;;8.30;2.85;;;;;;;;;;6110639;23;20177;-88
2022/09/15 05:15:36;;;;;;;6.38;2.90;;;;;;;;;;6111467;23;20190;-89
2022/09/15 05:18:43;;;;;;;10.25;3.42;;;;;;;;;;6111729;23;20239;-88
2022/09/15 05:21:48;;;;;;;11.65;2.85;;;;;;;;;;6110617;23;20201;-88
2022/09/15 05:24:53;;;;;;;8.45;3.08;;;;;;;;;;6112224;23;20182;-90
2022/09/15 05:27:59;;;;;;;10.80;3.20;;;;;;;;;;6110362;23;20178;-89
2022/09/15 05:31:10;;;;;;;7.95;2.78;;;;;;;;;;6112569;23;20243;-88
2022/09/15 05:34:15;;;;;;;10.40;2.60;;;;;;;;;;6110225;23;20177;-89
2022/09/15 05:37:20;;;;;;;6.05;2.22;;;;;;;;;;6111897;23;20170;-89
2022/09/15 05:40:25;;;;;;;4.57;2.33;;;;;;;;;;6111740;23;20206;-90
2022/09/15 05:43:31;;;;;;;4.80;2.22;;;;;;;;;;6114772;23;20209;-90
2022/09/15 05:46:37;;;;;;;5.55;2.35;;;;;;;;;;6112576;23;20194;-91
2022/09/15 05:53:01;;;;;;;5.82;2.45;;;;;;;;;;6110051;23;20239;-88
2022/09/15 05:56:08;;;;;;;12.40;3.20;;;;;;;;;;6111925;23;20211;-90
2022/09/15 05:59:14;;;;;;;9.18;2.50;;;;;;;;;;6110672;23;20186;-88
2022/09/15 06:02:23;;;;;;;5.75;2.17;;;;;;;;;;6111735;23;20149;-89
2022/09/15 06:05:28;;;;;;;8.60;2.35;;;;;;;;;;6111826;23;20178;-89
2022/09/15 06:08:44;;;;;;;4.55;2.38;;;;;;;;;;6111938;23;20170;-88
2022/09/15 06:11:51;;;;;;;5.13;2.22;;;;;;;;;;6111869;23;20154;-88
2022/09/15 06:14:56;;;;;;;4.50;1.90;;;;;;;;;;6108871;23;20206;-89
2022/09/15 06:18:03;;;;;;;5.82;2.88;;;;;;;;;;6110973;23;20175;-89
2022/09/15 06:21:09;;;;;;;6.20;2.47;;;;;;;;;;6111390;23;20177;-92
2022/09/15 06:24:14;;;;;;;3.63;2.00;;;;;;;;;;6110898;23;20653;-89
2022/09/15 06:27:23;;;;;;;4.85;2.15;;;;;;;;;;6109766;23;20166;-89
2022/09/15 06:30:28;;;;;;;7.43;2.30;;;;;;;;;;6109433;23;20162;-90
2022/09/15 06:33:35;;;;;;;8.32;2.65;;;;;;;;;;6111111;23;20162;-90
2022/09/15 06:36:40;;;;;;;8.43;2.50;;;;;;;;;;6113142;23;20173;-88
2022/09/15 06:39:45;;;;;;;6.10;2.40;;;;;;;;;;6114303;23;20166;-89
2022/09/15 06:42:50;;;;;;;6.85;2.17;;;;;;;;;;6113122;23;20237;-89
2022/09/15 06:46:03;;;;;;;11.80;2.13;;;;;;;;;;6110881;23;20182;-88
2022/09/15 06:49:10;;;;;;;5.97;2.05;;;;;;;;;;6110699;23;20165;-89
2022/09/15 06:52:15;;;;;;;4.57;2.38;;;;;;;;;;6110572;23;20186;-88
2022/09/15 06:55:20;;;;;;;8.82;2.20;;;;;;;;;;6109747;23;20189;-89
2022/09/15 06:58:26;;;;;;;9.95;1.92;;;;;;;;;;6109494;23;20170;-89
2022/09/15 07:01:32;;;;;;;4.95;2.00;;;;;;;;;;6109191;23;20158;-90
2022/09/15 07:04:41;;;;;;;5.10;1.92;;;;;;;;;;6112731;23;20229;-90
2022/09/15 07:07:48;;;;;;;4.20;1.98;;;;;;;;;;6112734;23;20226;-88
2022/09/15 07:10:54;;;;;;;4.95;2.30;;;;;;;;;;6110669;23;20183;-89
2022/09/15 07:14:00;;;;;;;5.35;2.03;;;;;;;;;;6109707;23;20185;-91
2022/09/15 07:17:05;;;;;;;6.63;2.85;;;;;;;;;;6108297;23;20174;-90
2022/09/15 07:20:13;;;;;;;8.38;2.00;;;;;;;;;;6111496;23;20203;-89
2022/09/15 07:23:19;;;;;;;11.82;5.53;;;;;;;;;;6109059;23;20702;-90
2022/09/15 07:26:26;;;;;;;5.82;2.40;;;;;;;;;;6111042;23;20622;-91
2022/09/15 07:29:31;;;;;;;6.95;2.47;;;;;;;;;;6109935;23;20166;-89
2022/09/15 07:32:36;;;;;;;5.78;1.88;;;;;;;;;;6110062;23;20302;-89
2022/09/15 07:35:44;;;;;;;7.38;2.30;;;;;;;;;;6108723;23;20202;-86
2022/09/15 07:38:50;;;;;;;4.90;2.70;;;;;;;;;;6112172;23;20158;-89
2022/09/15 07:41:55;;;;;;;7.70;2.17;;;;;;;;;;6110533;23;20250;-89
2022/09/15 07:45:00;;;;;;;8.43;2.22;;;;;;;;;;6112312;23;20216;-89
2022/09/15 07:48:06;;;;;;;6.63;2.05;;;;;;;;;;6107955;23;20551;-89
2022/09/15 07:54:40;;;;;;;15.27;2.22;;;;;;;;;;6110244;23;20239;-90
2022/09/15 07:57:45;;;;;;;5.82;2.10;;;;;;;;;;6111957;23;20218;-90
2022/09/15 08:00:51;;;;;;;6.38;1.80;;;;;;;;;;6109046;23;20169;-88
2022/09/15 08:03:56;;;;;;;6.95;1.88;;;;;;;;;;6110339;23;20661;-88
2022/09/15 08:07:04;;;;;;;6.32;2.25;;;;;;;;;;6112014;23;20169;-91
2022/09/15 08:10:09;;;;;;;7.80;2.05;;;;;;;;;;6110023;23;20213;-88
2022/09/15 08:13:14;;;;;;;9.27;2.05;;;;;;;;;;6111190;23;20214;-89
2022/09/15 08:16:21;;;;;;;4.18;1.90;;;;;;;;;;6111978;23;20169;-88
2022/09/15 08:19:27;;;;;;;7.90;2.00;;;;;;;;;;6111267;23;20169;-88
2022/09/15 08:22:34;;;;;;;2.40;1.70;;;;;;;;;;6110423;23;20225;-89
2022/09/15 08:25:42;;;;;;;7.38;2.08;;;;;;;;;;6112228;23;20202;-88
2022/09/15 08:28:47;;;;;;;4.88;1.83;;;;;;;;;;6110532;23;20175;-90
2022/09/15 08:31:52;;;;;;;4.82;1.95;;;;;;;;;;6110996;23;20170;-88
2022/09/15 08:34:57;;;;;;;9.13;3.85;;;;;;;;;;6108728;23;20173;-91
2022/09/15 08:38:04;;;;;;;3.45;1.50;;;;;;;;;;6113341;23;20220;-88
2022/09/15 08:41:12;;;;;;;4.70;1.67;;;;;;;;;;6114244;23;20169;-89
2022/09/15 08:44:23;;;;;;;4.15;1.60;;;;;;;;;;6113258;23;20318;-89
2022/09/15 08:47:32;;;;;;;4.50;2.00;;;;;;;;;;6114145;23;20246;-90
2022/09/15 08:50:40;;;;;;;4.00;1.52;;;;;;;;;;6114356;23;20218;-89
2022/09/15 08:53:52;;;;;;;4.60;1.45;;;;;;;;;;6113311;23;20173;-89
2022/09/15 08:56:58;;;;;;;3.97;1.60;;;;;;;;;;6114472;23;20202;-89
2022/09/15 09:00:04;;;;;;;10.13;2.58;;;;;;;;;;6112582;23;20247;-91
2022/09/15 09:03:27;;;;;;;3.72;1.50;;;;;;;;;;6117637;23;20158;-89
2022/09/15 09:06:37;;;;;;;5.28;1.85;;;;;;;;;;6113512;23;20158;-88
2022/09/15 09:10:01;;;;;;;2.33;1.50;;;;;;;;;;6114366;23;20170;-89
2022/09/15 09:13:12;;;;;;;7.63;2.00;;;;;;;;;;6111698;23;20169;-88
2022/09/15 09:16:31;;;;;;;2.85;1.50;;;;;;;;;;6116030;23;20283;-89
2022/09/15 09:19:50;;;;;;;4.45;1.50;;;;;;;;;;6114342;23;20154;-91
2022/09/15 09:22:58;;;;;;;4.85;1.25;;;;;;;;;;6114477;23;20161;-88
2022/09/15 09:26:10;;;;;;;5.97;1.73;;;;;;;;;;6114085;23;20247;-91
2022/09/15 09:29:18;;;;;;;6.07;1.67;;;;;;;;;;6115080;23;20169;-90
2022/09/15 09:32:37;;;;;;;3.55;1.60;;;;;;;;;;6115984;23;20170;-89
2022/09/15 09:39:05;;;;;;;4.18;1.60;;;;;;;;;;6115046;23;20223;-87
2022/09/15 09:42:14;;;;;;;3.03;1.33;;;;;;;;;;6111810;23;20633;-87
2022/09/15 09:45:21;;;;;;;4.63;1.30;;;;;;;;;;6113960;23;20202;-90
2022/09/15 09:48:28;;;;;;;4.47;1.30;;;;;;;;;;6112570;23;20221;-89
2022/09/15 09:51:35;;;;;;;4.15;1.20;;;;;;;;;;6113701;23;20199;-90
2022/09/15 09:54:44;;;;;;;3.22;1.35;;;;;;;;;;6115312;23;20205;-90
2022/09/15 09:57:51;;;;;;;5.00;1.25;;;;;;;;;;6117554;23;20170;-90
2022/09/15 10:01:09;;;;;;;3.58;1.38;;;;;;;;;;6118300;23;20174;-90
2022/09/15 10:04:19;;;;;;;3.30;1.13;;;;;;;;;;6119934;23;20193;-88
2022/09/15 14:05:06;;;;;;;2.67;0.98;;;;;;;;;;6085851;23;20236;-90
2022/09/15 14:08:15;;;;;;;2.65;1.10;;;;;;;;;;6081746;23;20166;-90
2022/09/15 14:11:25;;;;;;;6.13;1.75;;;;;;;;;;6050074;23;20175;-88
2022/09/15 14:14:36;;;;;;;2.90;1.08;;;;;;;;;;6084187;23;20175;-88
2022/09/15 14:17:45;;;;;;;2.58;1.20;;;;;;;;;;6085429;23;20222;-89
2022/09/15 14:20:59;;;;;;;5.45;2.53;;;;;;;;;;6084569;23;20235;-89
2022/09/15 14:24:05;;;;;;;3.72;1.80;;;;;;;;;;6082087;23;20312;-89
2022/09/15 14:27:11;;;;;;;4.43;1.40;;;;;;;;;;6082424;23;20178;-88
2022/09/15 14:30:21;;;;;;;4.68;1.20;;;;;;;;;;6082037;23;20175;-89
2022/09/15 14:33:30;;;;;;;4.13;1.08;;;;;;;;;;6066889;23;20178;-89
2022/09/15 14:36:37;;;;;;;3.95;1.15;;;;;;;;;;6082238;23;20227;-89
2022/09/15 14:39:45;;;;;;;4.72;1.10;;;;;;;;;;6085061;23;20187;-88
2022/09/15 14:42:51;;;;;;;2.78;1.42;;;;;;;;;;6081728;23;20178;-89
2022/09/15 14:45:56;;;;;;;1.65;1.02;;;;;;;;;;6085143;23;20185;-87
2022/09/15 14:49:37;;;;;;;3.85;1.35;;;;;;;;;;6082335;23;20189;-87
2022/09/15 14:52:44;;;;;;;3.17;1.00;;;;;;;;;;6065639;23;20162;-88
2022/09/15 14:55:51;;;;;;;1.48;0.90;;;;;;;;;;6082767;23;20186;-90
2022/09/15 14:58:57;;;;;;;4.20;1.08;;;;;;;;;;6082417;23;20174;-89
2022/09/15 15:02:06;;;;;;;2.00;0.73;;;;;;;;;;6082525;23;20166;-88
2022/09/15 15:05:18;;;;;;;3.28;1.02;;;;;;;;;;6084491;23;20250;-88
2022/09/15 15:08:30;;;;;;;2.45;0.90;;;;;;;;;;6083650;23;20178;-90
2022/09/15 15:11:35;;;;;;;3.08;1.08;;;;;;;;;;6083166;23;20178;-89
2022/09/15 15:14:42;;;;;;;1.65;0.90;;;;;;;;;;6081897;23;20239;-88
2022/09/15 15:17:49;;;;;;;2.83;1.10;;;;;;;;;;6065552;23;20175;-89
2022/09/15 15:20:55;;;;;;;2.45;0.85;;;;;;;;;;6080444;23;20171;-90
2022/09/15 15:24:07;;;;;;;1.60;1.15;;;;;;;;;;6083471;23;20277;-91
2022/09/15 15:27:39;;;;;;;2.35;0.98;;;;;;;;;;6083191;23;20166;-89
2022/09/15 15:30:46;;;;;;;2.45;1.30;;;;;;;;;;6083303;23;20173;-87
2022/09/15 15:33:54;;;;;;;1.33;0.80;;;;;;;;;;6084839;23;20177;-90
2022/09/15 17:43:38;;;;;;;4.57;1.83;;;;;;;;;;6024148;23;20228;-89
2022/09/15 17:46:43;;;;;;;15.48;2.15;;;;;;;;;;6007637;23;20192;-90
2022/09/15 17:49:48;;;;;;;4.47;1.50;;;;;;;;;;6008982;23;20175;-88
2022/09/15 17:52:52;;;;;;;2.75;1.50;;;;;;;;;;6007395;23;20171;-89
2022/09/15 17:55:58;;;;;;;2.85;1.70;;;;;;;;;;6006661;23;20212;-89
2022/09/15 22:06:29;;;;;;;11.23;5.47;;;;;;;;;;6104822;23;20277;-89
2022/09/15 22:09:20;;;;;;;15.02;5.20;;;;;;;;;;6026714;23;20244;-90
2022/09/15 22:12:26;;;;;;;9.65;4.40;;;;;;;;;;6140775;23;20168;-89
2022/09/15 22:15:31;;;;;;;7.95;3.80;;;;;;;;;;6143108;23;20222;-87
2022/09/15 22:18:37;;;;;;;7.88;4.20;;;;;;;;;;6124683;23;20632;-89
2022/09/15 22:21:46;;;;;;;8.05;3.55;;;;;;;;;;6125353;23;20198;-91
2022/09/15 22:24:54;;;;;;;6.93;4.00;;;;;;;;;;6127937;23;20180;-89
2022/09/15 22:28:03;;;;;;;8.70;4.22;;;;;;;;;;6124352;23;20166;-89
2022/09/15 22:31:12;;;;;;;9.32;4.32;;;;;;;;;;6123741;23;20173;-89
2022/09/15 22:34:17;;;;;;;12.57;5.25;;;;;;;;;;6123943;23;20230;-89
2022/09/15 22:37:26;;;;;;;7.90;4.55;;;;;;;;;;6120931;23;20269;-89
2022/09/15 22:40:31;;;;;;;8.63;4.50;;;;;;;;;;6119654;23;20589;-89
2022/09/15 22:43:36;;;;;;;8.77;4.20;;;;;;;;;;6126383;23;20156;-88
2022/09/15 22:46:41;;;;;;;8.75;4.80;;;;;;;;;;6123878;23;20275;-88
2022/09/15 22:49:46;;;;;;;10.35;4.97;;;;;;;;;;6119947;23;20169;-89
2022/09/15 22:52:53;;;;;;;9.13;4.22;;;;;;;;;;6120961;23;20209;-89
2022/09/15 22:56:05;;;;;;;8.63;4.57;;;;;;;;;;6121557;23;20215;-89
2022/09/15 22:59:12;;;;;;;11.68;4.97;;;;;;;;;;6121486;23;20209;-90
2022/09/15 23:02:17;;;;;;;16.27;5.10;;;;;;;;;;6122019;23;20189;-89
2022/09/15 23:05:21;;;;;;;9.45;4.90;;;;;;;;;;6122391;23;20196;-89
2022/09/15 23:08:28;;;;;;;11.68;6.25;;;;;;;;;;6120997;23;20165;-89
2022/09/15 23:11:33;;;;;;;13.80;6.35;;;;;;;;;;6119874;23;20234;-90
2022/09/15 23:14:39;;;;;;;9.50;4.55;;;;;;;;;;6120894;23;20150;-90
2022/09/15 23:17:43;;;;;;;10.38;5.28;;;;;;;;;;6121697;23;20180;-88
2022/09/15 23:20:48;;;;;;;16.05;4.75;;;;;;;;;;6120839;23;20181;-90
2022/09/15 23:23:55;;;;;;;11.48;4.95;;;;;;;;;;6119400;23;20220;-87
2022/09/15 23:27:00;;;;;;;11.57;5.15;;;;;;;;;;6120773;23;20274;-88
2022/09/15 23:30:05;;;;;;;12.48;5.30;;;;;;;;;;6118869;23;20199;-90
2022/09/15 23:33:11;;;;;;;11.60;5.43;;;;;;;;;;6125465;23;20156;-89
2022/09/15 23:36:18;;;;;;;13.32;6.00;;;;;;;;;;6126119;23;20189;-89
2022/09/15 23:39:25;;;;;;;12.18;5.45;;;;;;;;;;6125985;23;20169;-88
2022/09/15 23:42:30;;;;;;;9.20;5.43;;;;;;;;;;6124035;23;20185;-88
2022/09/15 23:45:37;;;;;;;9.93;6.43;;;;;;;;;;6124104;23;20217;-90
2022/09/15 23:48:46;;;;;;;12.15;5.95;;;;;;;;;;6118123;23;20178;-89
2022/09/15 23:51:51;;;;;;;10.15;5.72;;;;;;;;;;6119148;23;20169;-88
2022/09/15 23:54:57;;;;;;;8.35;5.63;;;;;;;;;;6119485;23;20173;-89
2022/09/15 23:58:03;;;;;;;11.18;6.00;;;;;;;;;;6117128;23;20282;-90
